KR-0338 weather

Haeundae Jugong Apartments Heliports
Haeundae (Busan), Busan Gwang'yeogsi, South Korea

Public forecast

Using degrees Celsius for public forecast. Weather courtesy of forecast.io.

METAR (pilot weather report)

Closest report is Gimhae International Airport, 11.9 nm (22.0 km) W. Retrieved 2019/09/16 03:00 UTC (29 minutes ago):

RKPK 160300Z 01007KT 9999 FEW030 SCT070 27/17 Q1009

TAF (pilot weather forecast)

Forecast is more than 12 hours old.

Closest forecast is Gimhae International Airport, 11.9 nm (22.0 km) W. Retrieved 2019/09/15 00:00 UTC (1 day ago):

TAF RKPK 152300Z 1600/1706 03006KT 9999 SCT030 SCT200 TX28/1606Z TN19/1620Z BECMG 1605/1606 03010KT BECMG 1612/1613 03006KT